sensor_id;sensor_type;location;lat;lon;timestamp;temperature;humidity
23540;DHT22;11947;50.810;4.394;2023-04-28T00:00:49;10.50;99.90
23540;DHT22;11947;50.810;4.394;2023-04-28T00:03:15;10.40;99.90
23540;DHT22;11947;50.810;4.394;2023-04-28T00:05:41;10.30;99.90
23540;DHT22;11947;50.810;4.394;2023-04-28T00:08:07;10.20;99.90
23540;DHT22;11947;50.810;4.394;2023-04-28T00:10:33;10.10;99.90
23540;DHT22;11947;50.810;4.394;2023-04-28T00:12:59;10.00;99.90
23540;DHT22;11947;50.810;4.394;2023-04-28T00:15:25;9.90;99.90
23540;DHT22;11947;50.810;4.394;2023-04-28T00:17:50;9.70;99.90
23540;DHT22;11947;50.810;4.394;2023-04-28T00:20:16;9.70;99.90
23540;DHT22;11947;50.810;4.394;2023-04-28T00:22:42;9.50;99.90
23540;DHT22;11947;50.810;4.394;2023-04-28T00:25:08;9.60;99.90
23540;DHT22;11947;50.810;4.394;2023-04-28T00:27:34;9.60;99.90
23540;DHT22;11947;50.810;4.394;2023-04-28T00:30:00;9.60;99.90
23540;DHT22;11947;50.810;4.394;2023-04-28T00:32:26;9.60;99.90
23540;DHT22;11947;50.810;4.394;2023-04-28T00:34:51;9.60;99.90
23540;DHT22;11947;50.810;4.394;2023-04-28T00:37:18;9.70;99.90
23540;DHT22;11947;50.810;4.394;2023-04-28T00:39:44;9.80;99.90
23540;DHT22;11947;50.810;4.394;2023-04-28T00:42:13;9.80;99.90
23540;DHT22;11947;50.810;4.394;2023-04-28T00:44:39;9.80;99.90
23540;DHT22;11947;50.810;4.394;2023-04-28T00:47:07;9.80;99.90
23540;DHT22;11947;50.810;4.394;2023-04-28T00:49:34;9.90;99.90
23540;DHT22;11947;50.810;4.394;2023-04-28T00:52:03;9.90;99.90
23540;DHT22;11947;50.810;4.394;2023-04-28T00:54:29;10.00;99.90
23540;DHT22;11947;50.810;4.394;2023-04-28T00:56:55;10.00;99.90
23540;DHT22;11947;50.810;4.394;2023-04-28T00:59:22;10.20;99.90
23540;DHT22;11947;50.810;4.394;2023-04-28T01:01:48;10.20;99.90
23540;DHT22;11947;50.810;4.394;2023-04-28T01:04:15;10.20;99.90
23540;DHT22;11947;50.810;4.394;2023-04-28T01:06:43;10.40;99.90
23540;DHT22;11947;50.810;4.394;2023-04-28T01:09:09;10.50;99.90
23540;DHT22;11947;50.810;4.394;2023-04-28T01:11:34;10.50;99.90
23540;DHT22;11947;50.810;4.394;2023-04-28T01:14:01;10.60;99.90
23540;DHT22;11947;50.810;4.394;2023-04-28T01:16:27;10.60;99.90
23540;DHT22;11947;50.810;4.394;2023-04-28T01:18:53;10.60;99.90
23540;DHT22;11947;50.810;4.394;2023-04-28T01:21:27;10.60;99.90
23540;DHT22;11947;50.810;4.394;2023-04-28T01:23:57;10.60;99.90
23540;DHT22;11947;50.810;4.394;2023-04-28T01:26:23;10.60;99.90
23540;DHT22;11947;50.810;4.394;2023-04-28T01:28:48;10.70;99.90
23540;DHT22;11947;50.810;4.394;2023-04-28T01:31:14;10.70;99.90
23540;DHT22;11947;50.810;4.394;2023-04-28T01:33:41;10.60;99.90
23540;DHT22;11947;50.810;4.394;2023-04-28T01:36:06;10.70;99.90
23540;DHT22;11947;50.810;4.394;2023-04-28T01:38:32;10.70;99.90
23540;DHT22;11947;50.810;4.394;2023-04-28T01:40:58;10.90;99.90
23540;DHT22;11947;50.810;4.394;2023-04-28T01:43:24;10.90;99.90
23540;DHT22;11947;50.810;4.394;2023-04-28T01:45:50;10.90;99.90
23540;DHT22;11947;50.810;4.394;2023-04-28T01:48:16;10.80;99.90
23540;DHT22;11947;50.810;4.394;2023-04-28T01:50:41;11.00;99.90
23540;DHT22;11947;50.810;4.394;2023-04-28T01:53:07;11.00;99.90
23540;DHT22;11947;50.810;4.394;2023-04-28T01:55:33;10.80;99.90
23540;DHT22;11947;50.810;4.394;2023-04-28T01:57:58;10.70;99.90
23540;DHT22;11947;50.810;4.394;2023-04-28T02:00:24;10.70;99.90
23540;DHT22;11947;50.810;4.394;2023-04-28T02:02:50;10.60;99.90
23540;DHT22;11947;50.810;4.394;2023-04-28T02:05:16;10.50;99.90
23540;DHT22;11947;50.810;4.394;2023-04-28T02:07:41;10.40;99.90
23540;DHT22;11947;50.810;4.394;2023-04-28T02:10:07;10.30;99.90
23540;DHT22;11947;50.810;4.394;2023-04-28T02:12:33;10.10;99.90
23540;DHT22;11947;50.810;4.394;2023-04-28T02:14:59;9.90;99.90
23540;DHT22;11947;50.810;4.394;2023-04-28T02:17:25;9.70;99.90
23540;DHT22;11947;50.810;4.394;2023-04-28T02:19:54;9.60;99.90
23540;DHT22;11947;50.810;4.394;2023-04-28T02:22:21;9.50;99.90
23540;DHT22;11947;50.810;4.394;2023-04-28T02:24:47;9.60;99.90
23540;DHT22;11947;50.810;4.394;2023-04-28T02:27:13;9.60;99.90
23540;DHT22;11947;50.810;4.394;2023-04-28T02:29:39;9.60;99.90
23540;DHT22;11947;50.810;4.394;2023-04-28T02:32:05;9.60;99.90
23540;DHT22;11947;50.810;4.394;2023-04-28T02:34:31;9.80;99.90
23540;DHT22;11947;50.810;4.394;2023-04-28T02:36:56;9.70;99.90
23540;DHT22;11947;50.810;4.394;2023-04-28T02:39:22;9.70;99.90
23540;DHT22;11947;50.810;4.394;2023-04-28T02:41:51;9.70;99.90
23540;DHT22;11947;50.810;4.394;2023-04-28T02:44:17;9.70;99.90
23540;DHT22;11947;50.810;4.394;2023-04-28T02:46:42;9.70;99.90
23540;DHT22;11947;50.810;4.394;2023-04-28T02:49:08;9.70;99.90
23540;DHT22;11947;50.810;4.394;2023-04-28T02:51:34;9.70;99.90
23540;DHT22;11947;50.810;4.394;2023-04-28T02:54:00;9.70;99.90
23540;DHT22;11947;50.810;4.394;2023-04-28T02:56:25;9.70;99.90
23540;DHT22;11947;50.810;4.394;2023-04-28T02:58:51;9.70;99.90
23540;DHT22;11947;50.810;4.394;2023-04-28T03:01:17;9.80;99.90
23540;DHT22;11947;50.810;4.394;2023-04-28T03:03:42;9.90;99.90
23540;DHT22;11947;50.810;4.394;2023-04-28T03:06:08;10.00;99.90
23540;DHT22;11947;50.810;4.394;2023-04-28T03:08:34;9.90;99.90
23540;DHT22;11947;50.810;4.394;2023-04-28T03:10:59;10.00;99.90
23540;DHT22;11947;50.810;4.394;2023-04-28T03:13:25;10.20;99.90
23540;DHT22;11947;50.810;4.394;2023-04-28T03:15:51;10.30;99.90
23540;DHT22;11947;50.810;4.394;2023-04-28T03:18:17;10.40;99.90
23540;DHT22;11947;50.810;4.394;2023-04-28T03:20:43;10.60;99.90
23540;DHT22;11947;50.810;4.394;2023-04-28T03:23:09;10.70;99.90
23540;DHT22;11947;50.810;4.394;2023-04-28T03:25:34;10.70;99.90
23540;DHT22;11947;50.810;4.394;2023-04-28T03:28:00;10.80;99.90
23540;DHT22;11947;50.810;4.394;2023-04-28T03:30:27;10.70;99.90
23540;DHT22;11947;50.810;4.394;2023-04-28T03:32:53;10.90;99.90
23540;DHT22;11947;50.810;4.394;2023-04-28T03:35:19;11.10;99.90
23540;DHT22;11947;50.810;4.394;2023-04-28T03:37:44;11.10;99.90
23540;DHT22;11947;50.810;4.394;2023-04-28T03:40:10;11.20;99.90
23540;DHT22;11947;50.810;4.394;2023-04-28T03:42:36;11.20;99.90
23540;DHT22;11947;50.810;4.394;2023-04-28T03:45:02;11.20;99.90
23540;DHT22;11947;50.810;4.394;2023-04-28T03:47:28;11.10;99.90
23540;DHT22;11947;50.810;4.394;2023-04-28T03:49:53;11.00;99.90
23540;DHT22;11947;50.810;4.394;2023-04-28T03:52:19;11.00;99.90
23540;DHT22;11947;50.810;4.394;2023-04-28T03:54:45;11.00;99.90
23540;DHT22;11947;50.810;4.394;2023-04-28T03:57:11;11.00;99.90
23540;DHT22;11947;50.810;4.394;2023-04-28T03:59:37;11.00;99.90
23540;DHT22;11947;50.810;4.394;2023-04-28T04:02:03;11.00;99.90
23540;DHT22;11947;50.810;4.394;2023-04-28T04:04:28;11.00;99.90
23540;DHT22;11947;50.810;4.394;2023-04-28T04:06:54;11.10;99.90
23540;DHT22;11947;50.810;4.394;2023-04-28T04:09:20;11.00;99.90
23540;DHT22;11947;50.810;4.394;2023-04-28T04:11:45;11.10;99.90
23540;DHT22;11947;50.810;4.394;2023-04-28T04:14:11;11.10;99.90
23540;DHT22;11947;50.810;4.394;2023-04-28T04:16:37;11.20;99.90
23540;DHT22;11947;50.810;4.394;2023-04-28T04:19:02;11.10;99.90
23540;DHT22;11947;50.810;4.394;2023-04-28T04:21:28;11.00;99.90
23540;DHT22;11947;50.810;4.394;2023-04-28T04:23:54;11.00;99.90
23540;DHT22;11947;50.810;4.394;2023-04-28T04:26:20;11.10;99.90
23540;DHT22;11947;50.810;4.394;2023-04-28T04:28:45;11.20;99.90
23540;DHT22;11947;50.810;4.394;2023-04-28T04:31:11;11.30;99.90
23540;DHT22;11947;50.810;4.394;2023-04-28T04:33:36;11.30;99.90
23540;DHT22;11947;50.810;4.394;2023-04-28T04:36:03;11.30;99.90
23540;DHT22;11947;50.810;4.394;2023-04-28T04:38:29;11.30;99.90
23540;DHT22;11947;50.810;4.394;2023-04-28T04:40:55;11.30;99.90
23540;DHT22;11947;50.810;4.394;2023-04-28T04:43:21;11.30;99.90
23540;DHT22;11947;50.810;4.394;2023-04-28T04:45:46;11.40;99.90
23540;DHT22;11947;50.810;4.394;2023-04-28T04:48:12;11.50;99.90
23540;DHT22;11947;50.810;4.394;2023-04-28T04:50:39;11.50;99.90
23540;DHT22;11947;50.810;4.394;2023-04-28T04:53:05;11.50;99.90
23540;DHT22;11947;50.810;4.394;2023-04-28T04:55:31;11.60;99.90
23540;DHT22;11947;50.810;4.394;2023-04-28T04:57:56;11.60;99.90
23540;DHT22;11947;50.810;4.394;2023-04-28T05:00:22;11.60;99.90
23540;DHT22;11947;50.810;4.394;2023-04-28T05:02:48;11.60;99.90
23540;DHT22;11947;50.810;4.394;2023-04-28T05:05:13;11.60;99.90
23540;DHT22;11947;50.810;4.394;2023-04-28T05:07:39;11.60;99.90
23540;DHT22;11947;50.810;4.394;2023-04-28T05:10:05;11.70;99.90
23540;DHT22;11947;50.810;4.394;2023-04-28T05:12:31;11.70;99.90
23540;DHT22;11947;50.810;4.394;2023-04-28T05:14:57;11.70;99.90
23540;DHT22;11947;50.810;4.394;2023-04-28T05:17:23;11.70;99.90
23540;DHT22;11947;50.810;4.394;2023-04-28T05:19:49;11.80;99.90
23540;DHT22;11947;50.810;4.394;2023-04-28T05:22:15;11.90;99.90
23540;DHT22;11947;50.810;4.394;2023-04-28T05:24:40;12.10;99.90
23540;DHT22;11947;50.810;4.394;2023-04-28T05:27:06;12.20;99.90
23540;DHT22;11947;50.810;4.394;2023-04-28T05:29:32;12.40;99.90
23540;DHT22;11947;50.810;4.394;2023-04-28T05:31:57;12.70;99.90
23540;DHT22;11947;50.810;4.394;2023-04-28T05:34:23;12.90;99.90
23540;DHT22;11947;50.810;4.394;2023-04-28T05:36:49;13.20;99.90
23540;DHT22;11947;50.810;4.394;2023-04-28T05:39:16;13.30;99.90
23540;DHT22;11947;50.810;4.394;2023-04-28T05:41:41;13.40;99.90
23540;DHT22;11947;50.810;4.394;2023-04-28T05:44:07;13.40;99.90
23540;DHT22;11947;50.810;4.394;2023-04-28T05:46:33;13.40;99.90
23540;DHT22;11947;50.810;4.394;2023-04-28T05:48:59;13.50;99.90
23540;DHT22;11947;50.810;4.394;2023-04-28T05:51:24;13.60;99.90
23540;DHT22;11947;50.810;4.394;2023-04-28T05:53:51;13.60;99.90
23540;DHT22;11947;50.810;4.394;2023-04-28T05:56:17;13.70;99.90
23540;DHT22;11947;50.810;4.394;2023-04-28T05:58:43;13.70;99.90
23540;DHT22;11947;50.810;4.394;2023-04-28T06:01:15;13.80;99.90
23540;DHT22;11947;50.810;4.394;2023-04-28T06:03:41;13.80;99.90
23540;DHT22;11947;50.810;4.394;2023-04-28T06:06:08;13.90;99.90
23540;DHT22;11947;50.810;4.394;2023-04-28T06:08:35;14.00;99.90
23540;DHT22;11947;50.810;4.394;2023-04-28T06:11:00;14.10;99.90
23540;DHT22;11947;50.810;4.394;2023-04-28T06:13:26;14.10;99.90
23540;DHT22;11947;50.810;4.394;2023-04-28T06:15:52;14.10;99.90
23540;DHT22;11947;50.810;4.394;2023-04-28T06:18:18;14.20;99.90
23540;DHT22;11947;50.810;4.394;2023-04-28T06:20:43;14.20;99.90
23540;DHT22;11947;50.810;4.394;2023-04-28T06:23:09;14.20;99.90
23540;DHT22;11947;50.810;4.394;2023-04-28T06:25:35;14.20;99.90
23540;DHT22;11947;50.810;4.394;2023-04-28T06:28:01;14.20;99.90
23540;DHT22;11947;50.810;4.394;2023-04-28T06:30:27;14.20;99.90
23540;DHT22;11947;50.810;4.394;2023-04-28T06:32:53;14.30;99.90
23540;DHT22;11947;50.810;4.394;2023-04-28T06:35:21;14.40;99.90
23540;DHT22;11947;50.810;4.394;2023-04-28T06:37:46;14.40;99.90
23540;DHT22;11947;50.810;4.394;2023-04-28T06:40:12;14.50;99.90
23540;DHT22;11947;50.810;4.394;2023-04-28T06:42:38;14.50;99.90
23540;DHT22;11947;50.810;4.394;2023-04-28T06:45:04;14.40;99.90
23540;DHT22;11947;50.810;4.394;2023-04-28T06:47:29;14.40;99.90
23540;DHT22;11947;50.810;4.394;2023-04-28T06:49:55;14.40;99.90
23540;DHT22;11947;50.810;4.394;2023-04-28T06:52:21;14.40;99.90
23540;DHT22;11947;50.810;4.394;2023-04-28T06:54:49;14.50;99.90
23540;DHT22;11947;50.810;4.394;2023-04-28T06:57:15;14.50;99.90
23540;DHT22;11947;50.810;4.394;2023-04-28T06:59:40;14.50;99.90
23540;DHT22;11947;50.810;4.394;2023-04-28T07:02:08;14.60;99.90
23540;DHT22;11947;50.810;4.394;2023-04-28T07:04:35;14.70;99.90
23540;DHT22;11947;50.810;4.394;2023-04-28T07:07:01;14.70;99.90
23540;DHT22;11947;50.810;4.394;2023-04-28T07:09:27;14.70;99.90
23540;DHT22;11947;50.810;4.394;2023-04-28T07:11:52;14.80;99.90
23540;DHT22;11947;50.810;4.394;2023-04-28T07:14:18;14.80;99.90
23540;DHT22;11947;50.810;4.394;2023-04-28T07:16:44;14.80;99.90
23540;DHT22;11947;50.810;4.394;2023-04-28T07:19:09;14.80;99.90
23540;DHT22;11947;50.810;4.394;2023-04-28T07:21:35;14.80;99.90
23540;DHT22;11947;50.810;4.394;2023-04-28T07:24:01;14.90;99.90
23540;DHT22;11947;50.810;4.394;2023-04-28T07:26:26;14.90;99.90
23540;DHT22;11947;50.810;4.394;2023-04-28T07:28:52;15.10;99.90
23540;DHT22;11947;50.810;4.394;2023-04-28T07:31:18;15.10;99.90
23540;DHT22;11947;50.810;4.394;2023-04-28T07:33:44;15.10;99.90
23540;DHT22;11947;50.810;4.394;2023-04-28T07:36:10;15.20;99.90
23540;DHT22;11947;50.810;4.394;2023-04-28T07:38:36;15.40;99.90
23540;DHT22;11947;50.810;4.394;2023-04-28T07:41:02;15.60;99.90
23540;DHT22;11947;50.810;4.394;2023-04-28T07:43:29;15.80;99.90
23540;DHT22;11947;50.810;4.394;2023-04-28T07:45:55;16.00;99.90
23540;DHT22;11947;50.810;4.394;2023-04-28T07:48:20;16.30;99.90
23540;DHT22;11947;50.810;4.394;2023-04-28T07:50:46;16.40;99.90
23540;DHT22;11947;50.810;4.394;2023-04-28T07:53:12;16.70;99.90
23540;DHT22;11947;50.810;4.394;2023-04-28T07:55:37;16.90;99.90
23540;DHT22;11947;50.810;4.394;2023-04-28T07:58:06;17.10;99.90
23540;DHT22;11947;50.810;4.394;2023-04-28T08:00:32;17.50;99.90
23540;DHT22;11947;50.810;4.394;2023-04-28T08:02:57;17.60;99.90
23540;DHT22;11947;50.810;4.394;2023-04-28T08:05:23;17.70;99.90
23540;DHT22;11947;50.810;4.394;2023-04-28T08:07:49;17.60;99.90
23540;DHT22;11947;50.810;4.394;2023-04-28T08:10:15;17.50;99.90
23540;DHT22;11947;50.810;4.394;2023-04-28T08:12:40;17.70;99.90
23540;DHT22;11947;50.810;4.394;2023-04-28T08:15:08;17.60;99.90
23540;DHT22;11947;50.810;4.394;2023-04-28T08:17:34;17.70;99.90
23540;DHT22;11947;50.810;4.394;2023-04-28T08:19:59;17.80;99.90
23540;DHT22;11947;50.810;4.394;2023-04-28T08:22:25;17.80;99.90
23540;DHT22;11947;50.810;4.394;2023-04-28T08:24:51;17.80;99.90
23540;DHT22;11947;50.810;4.394;2023-04-28T08:27:16;17.60;99.90
23540;DHT22;11947;50.810;4.394;2023-04-28T08:29:42;17.40;99.90
23540;DHT22;11947;50.810;4.394;2023-04-28T08:32:08;17.50;99.90
23540;DHT22;11947;50.810;4.394;2023-04-28T08:34:33;17.70;99.90
23540;DHT22;11947;50.810;4.394;2023-04-28T08:36:59;17.70;99.90
23540;DHT22;11947;50.810;4.394;2023-04-28T08:39:25;17.70;99.90
23540;DHT22;11947;50.810;4.394;2023-04-28T08:41:52;17.70;99.90
23540;DHT22;11947;50.810;4.394;2023-04-28T08:44:17;17.70;99.90
23540;DHT22;11947;50.810;4.394;2023-04-28T08:46:45;17.50;99.90
23540;DHT22;11947;50.810;4.394;2023-04-28T08:49:15;17.40;99.90
23540;DHT22;11947;50.810;4.394;2023-04-28T08:51:59;17.40;99.90
23540;DHT22;11947;50.810;4.394;2023-04-28T08:54:32;17.40;99.90
23540;DHT22;11947;50.810;4.394;2023-04-28T08:57:01;17.40;99.90
23540;DHT22;11947;50.810;4.394;2023-04-28T08:59:26;17.20;99.90
23540;DHT22;11947;50.810;4.394;2023-04-28T09:01:52;17.20;99.90
23540;DHT22;11947;50.810;4.394;2023-04-28T09:04:18;17.10;99.90
23540;DHT22;11947;50.810;4.394;2023-04-28T09:06:44;17.20;99.90
23540;DHT22;11947;50.810;4.394;2023-04-28T09:09:27;17.10;99.90
23540;DHT22;11947;50.810;4.394;2023-04-28T09:12:01;17.10;99.90
23540;DHT22;11947;50.810;4.394;2023-04-28T09:14:32;17.30;99.90
23540;DHT22;11947;50.810;4.394;2023-04-28T09:16:59;17.30;99.90
23540;DHT22;11947;50.810;4.394;2023-04-28T09:19:36;17.30;99.90
23540;DHT22;11947;50.810;4.394;2023-04-28T09:22:02;17.70;99.90
23540;DHT22;11947;50.810;4.394;2023-04-28T09:24:40;18.30;99.90
23540;DHT22;11947;50.810;4.394;2023-04-28T09:27:09;18.90;99.90
23540;DHT22;11947;50.810;4.394;2023-04-28T09:29:37;19.30;99.90
23540;DHT22;11947;50.810;4.394;2023-04-28T09:32:16;19.60;99.90
23540;DHT22;11947;50.810;4.394;2023-04-28T09:34:47;19.70;99.90
23540;DHT22;11947;50.810;4.394;2023-04-28T09:37:15;19.70;99.90
23540;DHT22;11947;50.810;4.394;2023-04-28T09:39:43;19.50;99.90
23540;DHT22;11947;50.810;4.394;2023-04-28T09:42:08;19.50;99.90
23540;DHT22;11947;50.810;4.394;2023-04-28T09:44:34;19.70;99.90
23540;DHT22;11947;50.810;4.394;2023-04-28T09:47:00;19.60;99.90
23540;DHT22;11947;50.810;4.394;2023-04-28T09:49:58;19.50;99.90
23540;DHT22;11947;50.810;4.394;2023-04-28T09:52:24;19.40;99.90
23540;DHT22;11947;50.810;4.394;2023-04-28T09:54:51;19.80;99.90
23540;DHT22;11947;50.810;4.394;2023-04-28T09:57:17;19.80;99.90
23540;DHT22;11947;50.810;4.394;2023-04-28T09:59:48;19.60;99.90
23540;DHT22;11947;50.810;4.394;2023-04-28T10:02:18;19.40;99.90
23540;DHT22;11947;50.810;4.394;2023-04-28T10:04:46;19.20;99.90
23540;DHT22;11947;50.810;4.394;2023-04-28T10:07:13;19.30;99.90
23540;DHT22;11947;50.810;4.394;2023-04-28T10:09:41;19.40;99.90
23540;DHT22;11947;50.810;4.394;2023-04-28T10:12:13;20.00;99.90
23540;DHT22;11947;50.810;4.394;2023-04-28T10:14:40;20.40;99.90
23540;DHT22;11947;50.810;4.394;2023-04-28T10:17:05;20.50;99.90
23540;DHT22;11947;50.810;4.394;2023-04-28T10:19:32;20.60;99.90
23540;DHT22;11947;50.810;4.394;2023-04-28T10:27:40;21.90;99.90
23540;DHT22;11947;50.810;4.394;2023-04-28T10:30:21;23.10;99.90
23540;DHT22;11947;50.810;4.394;2023-04-28T10:32:47;23.00;99.90
23540;DHT22;11947;50.810;4.394;2023-04-28T10:38:15;23.10;99.90
23540;DHT22;11947;50.810;4.394;2023-04-28T10:40:42;23.00;99.90
23540;DHT22;11947;50.810;4.394;2023-04-28T10:43:10;22.70;99.90
23540;DHT22;11947;50.810;4.394;2023-04-28T10:48:14;22.80;99.90
23540;DHT22;11947;50.810;4.394;2023-04-28T10:56:23;20.90;99.90
23540;DHT22;11947;50.810;4.394;2023-04-28T10:58:55;20.30;99.90
23540;DHT22;11947;50.810;4.394;2023-04-28T11:03:58;20.30;99.90
23540;DHT22;11947;50.810;4.394;2023-04-28T11:06:43;20.40;99.90
23540;DHT22;11947;50.810;4.394;2023-04-28T11:19:20;20.70;99.90
23540;DHT22;11947;50.810;4.394;2023-04-28T11:21:46;20.30;99.90
23540;DHT22;11947;50.810;4.394;2023-04-28T11:24:13;19.90;99.90
23540;DHT22;11947;50.810;4.394;2023-04-28T11:26:39;19.80;99.90
23540;DHT22;11947;50.810;4.394;2023-04-28T11:29:05;19.50;99.90
23540;DHT22;11947;50.810;4.394;2023-04-28T11:31:31;19.10;99.90
23540;DHT22;11947;50.810;4.394;2023-04-28T11:34:07;19.00;99.90
23540;DHT22;11947;50.810;4.394;2023-04-28T11:36:37;18.80;99.90
23540;DHT22;11947;50.810;4.394;2023-04-28T11:39:10;18.80;99.90
23540;DHT22;11947;50.810;4.394;2023-04-28T11:41:41;18.70;99.90
23540;DHT22;11947;50.810;4.394;2023-04-28T11:44:15;18.40;99.90
23540;DHT22;11947;50.810;4.394;2023-04-28T11:46:45;18.20;99.90
23540;DHT22;11947;50.810;4.394;2023-04-28T11:49:16;18.20;99.90
23540;DHT22;11947;50.810;4.394;2023-04-28T11:51:42;18.20;99.90
23540;DHT22;11947;50.810;4.394;2023-04-28T11:54:10;18.10;99.90
23540;DHT22;11947;50.810;4.394;2023-04-28T11:56:41;18.00;99.90
23540;DHT22;11947;50.810;4.394;2023-04-28T11:59:08;18.10;99.90
23540;DHT22;11947;50.810;4.394;2023-04-28T12:01:47;18.00;99.90
23540;DHT22;11947;50.810;4.394;2023-04-28T12:04:13;18.10;99.90
23540;DHT22;11947;50.810;4.394;2023-04-28T12:06:40;18.20;99.90
23540;DHT22;11947;50.810;4.394;2023-04-28T12:09:16;18.20;99.90
23540;DHT22;11947;50.810;4.394;2023-04-28T12:11:56;18.70;99.90
23540;DHT22;11947;50.810;4.394;2023-04-28T12:14:22;19.40;99.90
23540;DHT22;11947;50.810;4.394;2023-04-28T12:16:49;19.50;99.90
23540;DHT22;11947;50.810;4.394;2023-04-28T12:19:15;19.50;99.90
23540;DHT22;11947;50.810;4.394;2023-04-28T12:21:42;19.40;99.90
23540;DHT22;11947;50.810;4.394;2023-04-28T12:24:15;19.50;99.90
23540;DHT22;11947;50.810;4.394;2023-04-28T12:26:41;19.90;99.90
23540;DHT22;11947;50.810;4.394;2023-04-28T12:29:07;19.90;99.90
23540;DHT22;11947;50.810;4.394;2023-04-28T12:31:50;19.70;99.90
23540;DHT22;11947;50.810;4.394;2023-04-28T12:34:17;19.70;99.90
23540;DHT22;11947;50.810;4.394;2023-04-28T12:36:43;19.50;99.90
23540;DHT22;11947;50.810;4.394;2023-04-28T12:39:14;19.40;99.90
23540;DHT22;11947;50.810;4.394;2023-04-28T12:41:44;19.20;99.90
23540;DHT22;11947;50.810;4.394;2023-04-28T12:44:10;19.30;99.90
23540;DHT22;11947;50.810;4.394;2023-04-28T12:46:36;19.40;99.90
23540;DHT22;11947;50.810;4.394;2023-04-28T12:49:02;19.30;99.90
23540;DHT22;11947;50.810;4.394;2023-04-28T12:51:27;19.40;99.90
23540;DHT22;11947;50.810;4.394;2023-04-28T12:53:54;19.50;99.90
23540;DHT22;11947;50.810;4.394;2023-04-28T12:56:19;19.30;99.90
23540;DHT22;11947;50.810;4.394;2023-04-28T12:58:45;19.30;99.90
23540;DHT22;11947;50.810;4.394;2023-04-28T13:01:11;19.10;99.90
23540;DHT22;11947;50.810;4.394;2023-04-28T13:03:36;19.00;99.90
23540;DHT22;11947;50.810;4.394;2023-04-28T13:06:02;18.80;99.90
23540;DHT22;11947;50.810;4.394;2023-04-28T13:08:28;18.80;99.90
23540;DHT22;11947;50.810;4.394;2023-04-28T13:10:58;18.70;99.90
23540;DHT22;11947;50.810;4.394;2023-04-28T13:13:23;18.50;99.90
23540;DHT22;11947;50.810;4.394;2023-04-28T13:15:49;18.60;99.90
23540;DHT22;11947;50.810;4.394;2023-04-28T13:18:16;18.70;99.90
23540;DHT22;11947;50.810;4.394;2023-04-28T13:20:41;18.90;99.90
23540;DHT22;11947;50.810;4.394;2023-04-28T13:23:07;18.90;99.90
23540;DHT22;11947;50.810;4.394;2023-04-28T13:25:32;18.70;99.90
23540;DHT22;11947;50.810;4.394;2023-04-28T13:27:58;18.50;99.90
23540;DHT22;11947;50.810;4.394;2023-04-28T13:30:24;18.60;99.90
23540;DHT22;11947;50.810;4.394;2023-04-28T13:32:49;18.70;99.90
23540;DHT22;11947;50.810;4.394;2023-04-28T13:35:16;18.70;99.90
23540;DHT22;11947;50.810;4.394;2023-04-28T13:37:42;18.60;99.90
23540;DHT22;11947;50.810;4.394;2023-04-28T13:40:10;18.40;99.90
23540;DHT22;11947;50.810;4.394;2023-04-28T13:42:36;18.40;99.90
23540;DHT22;11947;50.810;4.394;2023-04-28T13:45:02;18.40;99.90
23540;DHT22;11947;50.810;4.394;2023-04-28T13:47:28;18.30;99.90
23540;DHT22;11947;50.810;4.394;2023-04-28T13:49:57;18.40;99.90
23540;DHT22;11947;50.810;4.394;2023-04-28T13:52:25;18.20;99.90
23540;DHT22;11947;50.810;4.394;2023-04-28T13:54:50;18.20;99.90
23540;DHT22;11947;50.810;4.394;2023-04-28T13:57:17;18.00;99.90
23540;DHT22;11947;50.810;4.394;2023-04-28T13:59:42;17.90;99.90
23540;DHT22;11947;50.810;4.394;2023-04-28T14:02:08;17.90;99.90
23540;DHT22;11947;50.810;4.394;2023-04-28T14:04:36;17.70;99.90
23540;DHT22;11947;50.810;4.394;2023-04-28T14:07:02;17.70;99.90
23540;DHT22;11947;50.810;4.394;2023-04-28T14:09:27;17.70;99.90
23540;DHT22;11947;50.810;4.394;2023-04-28T14:11:53;17.80;99.90
23540;DHT22;11947;50.810;4.394;2023-04-28T14:14:21;17.80;99.90
23540;DHT22;11947;50.810;4.394;2023-04-28T14:16:47;17.90;99.90
23540;DHT22;11947;50.810;4.394;2023-04-28T14:19:13;18.00;99.90
23540;DHT22;11947;50.810;4.394;2023-04-28T14:21:42;18.00;99.90
23540;DHT22;11947;50.810;4.394;2023-04-28T14:24:08;18.10;99.90
23540;DHT22;11947;50.810;4.394;2023-04-28T14:26:37;18.00;99.90
23540;DHT22;11947;50.810;4.394;2023-04-28T14:29:02;18.10;99.90
23540;DHT22;11947;50.810;4.394;2023-04-28T14:31:30;18.10;99.90
23540;DHT22;11947;50.810;4.394;2023-04-28T14:33:55;18.20;99.90
23540;DHT22;11947;50.810;4.394;2023-04-28T14:36:21;18.30;99.90
23540;DHT22;11947;50.810;4.394;2023-04-28T14:38:47;18.30;99.90
23540;DHT22;11947;50.810;4.394;2023-04-28T14:41:12;18.30;99.90
23540;DHT22;11947;50.810;4.394;2023-04-28T14:43:38;18.50;99.90
23540;DHT22;11947;50.810;4.394;2023-04-28T14:46:04;18.60;99.90
23540;DHT22;11947;50.810;4.394;2023-04-28T14:48:31;18.60;99.90
23540;DHT22;11947;50.810;4.394;2023-04-28T14:50:57;18.70;99.90
23540;DHT22;11947;50.810;4.394;2023-04-28T14:53:23;19.00;99.90
23540;DHT22;11947;50.810;4.394;2023-04-28T14:55:49;19.20;99.90
23540;DHT22;11947;50.810;4.394;2023-04-28T14:58:14;19.30;99.90
23540;DHT22;11947;50.810;4.394;2023-04-28T15:00:40;19.60;99.90
23540;DHT22;11947;50.810;4.394;2023-04-28T15:03:06;19.90;99.90
23540;DHT22;11947;50.810;4.394;2023-04-28T15:05:32;20.20;99.90
23540;DHT22;11947;50.810;4.394;2023-04-28T15:07:58;20.50;99.90
23540;DHT22;11947;50.810;4.394;2023-04-28T15:10:23;20.70;99.90
23540;DHT22;11947;50.810;4.394;2023-04-28T15:12:49;20.60;99.90
23540;DHT22;11947;50.810;4.394;2023-04-28T15:15:15;20.50;99.90
23540;DHT22;11947;50.810;4.394;2023-04-28T15:17:41;20.10;99.90
23540;DHT22;11947;50.810;4.394;2023-04-28T15:20:07;20.00;99.90
23540;DHT22;11947;50.810;4.394;2023-04-28T15:22:33;19.90;99.90
23540;DHT22;11947;50.810;4.394;2023-04-28T15:25:00;19.80;99.90
23540;DHT22;11947;50.810;4.394;2023-04-28T15:27:26;19.70;99.90
23540;DHT22;11947;50.810;4.394;2023-04-28T15:29:52;19.60;99.90
23540;DHT22;11947;50.810;4.394;2023-04-28T15:32:17;19.40;99.90
23540;DHT22;11947;50.810;4.394;2023-04-28T15:34:43;19.40;99.90
23540;DHT22;11947;50.810;4.394;2023-04-28T15:37:38;19.50;99.90
23540;DHT22;11947;50.810;4.394;2023-04-28T15:40:05;19.40;99.90
23540;DHT22;11947;50.810;4.394;2023-04-28T15:42:31;19.40;99.90
23540;DHT22;11947;50.810;4.394;2023-04-28T15:44:57;19.40;99.90
23540;DHT22;11947;50.810;4.394;2023-04-28T15:47:23;19.40;99.90
23540;DHT22;11947;50.810;4.394;2023-04-28T15:49:49;19.30;99.90
23540;DHT22;11947;50.810;4.394;2023-04-28T15:52:15;19.20;99.90
23540;DHT22;11947;50.810;4.394;2023-04-28T15:54:41;19.10;99.90
23540;DHT22;11947;50.810;4.394;2023-04-28T15:57:07;18.90;99.90
23540;DHT22;11947;50.810;4.394;2023-04-28T15:59:33;18.90;99.90